createdAt,value
2023-12-30T00:00:20.128Z,5.68
2023-12-30T00:02:48.941Z,4.40
2023-12-30T00:05:18.553Z,3.80
2023-12-30T00:07:46.154Z,3.35
2023-12-30T00:10:13.412Z,7.85
2023-12-30T00:12:40.228Z,2.22
2023-12-30T00:15:07.899Z,2.30
2023-12-30T00:17:34.838Z,2.05
2023-12-30T00:20:01.753Z,2.03
2023-12-30T00:22:28.663Z,1.90
2023-12-30T00:24:55.686Z,2.00
2023-12-30T00:27:22.542Z,1.53
2023-12-30T00:29:50.915Z,1.52
2023-12-30T00:32:18.017Z,2.03
2023-12-30T00:34:44.838Z,1.65
2023-12-30T00:37:14.279Z,1.70
2023-12-30T00:39:42.115Z,1.40
2023-12-30T00:42:08.783Z,2.08
2023-12-30T00:44:35.654Z,2.83
2023-12-30T00:47:02.457Z,1.90
2023-12-30T00:49:29.193Z,1.60
2023-12-30T00:51:56.073Z,1.50
2023-12-30T00:54:22.811Z,1.60
2023-12-30T00:56:49.699Z,1.90
2023-12-30T00:59:17.515Z,1.63
2023-12-30T01:01:44.303Z,2.65
2023-12-30T01:04:13.686Z,1.80
2023-12-30T01:06:40.491Z,1.40
2023-12-30T01:09:07.150Z,1.50
2023-12-30T01:11:34.014Z,1.40
2023-12-30T01:14:01.170Z,1.30
2023-12-30T01:16:27.953Z,1.40
2023-12-30T01:18:54.902Z,1.40
2023-12-30T01:21:21.636Z,1.15
2023-12-30T01:23:48.329Z,1.10
2023-12-30T01:26:15.011Z,1.65
2023-12-30T01:28:41.680Z,1.30
2023-12-30T01:31:08.470Z,1.60
2023-12-30T01:33:35.262Z,1.38
2023-12-30T01:36:02.079Z,2.00
2023-12-30T01:38:28.823Z,1.20
2023-12-30T01:40:56.780Z,1.70
2023-12-30T01:43:34.693Z,1.50
2023-12-30T01:46:05.665Z,2.00
2023-12-30T01:48:33.104Z,1.60
2023-12-30T01:51:02.752Z,1.70
2023-12-30T01:53:33.115Z,1.97
2023-12-30T01:56:00.324Z,1.10
2023-12-30T01:58:27.186Z,1.50
2023-12-30T02:00:56.278Z,1.40
2023-12-30T02:03:23.117Z,1.58
2023-12-30T02:05:49.938Z,1.50
2023-12-30T02:08:17.290Z,1.33
2023-12-30T02:10:44.275Z,1.60
2023-12-30T02:13:11.736Z,1.75
2023-12-30T02:15:38.943Z,1.60
2023-12-30T02:18:05.834Z,1.87
2023-12-30T02:20:34.570Z,1.67
2023-12-30T02:23:01.728Z,1.33
2023-12-30T02:25:28.739Z,1.55
2023-12-30T02:27:55.516Z,1.55
2023-12-30T02:30:25.220Z,1.65
2023-12-30T02:32:56.506Z,1.67
2023-12-30T02:35:24.386Z,1.85
2023-12-30T02:37:51.092Z,1.70
2023-12-30T02:40:17.908Z,1.38
2023-12-30T02:42:44.742Z,1.43
2023-12-30T02:45:12.757Z,1.50
2023-12-30T02:47:39.558Z,1.45
2023-12-30T02:50:06.990Z,1.50
2023-12-30T02:52:33.835Z,1.40
2023-12-30T02:55:02.045Z,1.37
2023-12-30T02:57:28.832Z,1.40
2023-12-30T02:59:55.565Z,1.45
2023-12-30T03:02:22.300Z,1.55
2023-12-30T03:04:49.133Z,1.88
2023-12-30T03:07:15.908Z,2.30
2023-12-30T03:09:42.708Z,1.60
2023-12-30T03:12:10.147Z,1.50
2023-12-30T03:14:36.923Z,1.63
2023-12-30T03:17:03.931Z,1.33
2023-12-30T03:19:30.645Z,1.30
2023-12-30T03:21:57.377Z,1.30
2023-12-30T03:24:24.049Z,2.67
2023-12-30T03:26:50.724Z,4.57
2023-12-30T03:29:17.436Z,2.38
2023-12-30T03:31:44.108Z,1.33
2023-12-30T03:34:11.046Z,1.20
2023-12-30T03:36:38.187Z,1.60
2023-12-30T03:39:07.498Z,2.25
2023-12-30T03:41:34.209Z,2.97
2023-12-30T03:44:00.914Z,1.20
2023-12-30T03:46:27.688Z,1.27
2023-12-30T03:48:54.592Z,1.65
2023-12-30T03:51:21.377Z,1.40
2023-12-30T03:53:48.960Z,1.42
2023-12-30T03:56:15.761Z,1.63
2023-12-30T03:58:42.472Z,1.55
2023-12-30T04:01:09.315Z,1.50
2023-12-30T04:03:36.141Z,2.70
2023-12-30T04:06:02.839Z,1.65
2023-12-30T04:08:29.585Z,1.80
2023-12-30T04:10:56.229Z,1.65
2023-12-30T04:13:23.026Z,1.52
2023-12-30T04:15:49.769Z,1.52
2023-12-30T04:18:16.632Z,1.58
2023-12-30T04:20:43.567Z,1.40
2023-12-30T04:23:10.217Z,1.42
2023-12-30T04:25:37.365Z,1.75
2023-12-30T04:28:04.413Z,1.70
2023-12-30T04:30:31.137Z,1.70
2023-12-30T04:32:57.913Z,1.70
2023-12-30T04:35:24.613Z,1.55
2023-12-30T04:37:51.294Z,1.48
2023-12-30T04:40:18.023Z,1.73
2023-12-30T04:42:44.794Z,2.03
2023-12-30T04:45:14.034Z,1.63
2023-12-30T04:47:41.371Z,2.28
2023-12-30T04:50:09.155Z,2.20
2023-12-30T04:52:35.977Z,2.00
2023-12-30T04:55:04.126Z,2.20
2023-12-30T04:57:31.027Z,1.73
2023-12-30T04:59:57.751Z,1.77
2023-12-30T05:02:24.516Z,1.90
2023-12-30T05:04:51.249Z,2.30
2023-12-30T05:07:18.070Z,1.90
2023-12-30T05:09:44.897Z,2.33
2023-12-30T05:12:11.771Z,2.30
2023-12-30T05:14:38.574Z,2.88
2023-12-30T05:17:05.336Z,1.63
2023-12-30T05:19:32.951Z,2.10
2023-12-30T05:21:59.684Z,2.07
2023-12-30T05:24:26.516Z,2.15
2023-12-30T05:26:53.204Z,2.40
2023-12-30T05:29:20.420Z,2.40
2023-12-30T05:31:47.455Z,2.40
2023-12-30T05:34:16.256Z,3.30
2023-12-30T05:36:42.961Z,2.40
2023-12-30T05:39:09.744Z,2.53
2023-12-30T05:41:36.529Z,1.63
2023-12-30T05:44:03.180Z,1.70
2023-12-30T05:46:32.075Z,1.50
2023-12-30T05:48:58.922Z,1.60
2023-12-30T05:51:25.689Z,1.63
2023-12-30T05:53:52.438Z,1.90
2023-12-30T05:56:23.594Z,5.03
2023-12-30T05:58:51.204Z,8.20
2023-12-30T06:01:18.074Z,3.10
2023-12-30T06:03:44.794Z,2.60
2023-12-30T06:06:11.532Z,4.80
2023-12-30T06:08:38.283Z,2.10
2023-12-30T06:11:05.196Z,1.93
2023-12-30T06:13:33.202Z,1.73
2023-12-30T06:16:00.067Z,1.90
2023-12-30T06:18:32.587Z,1.95
2023-12-30T06:20:59.964Z,1.95
2023-12-30T06:23:29.917Z,2.00
2023-12-30T06:25:56.693Z,2.58
2023-12-30T06:28:25.690Z,2.28
2023-12-30T06:30:52.664Z,2.10
2023-12-30T06:33:22.162Z,2.03
2023-12-30T06:35:48.987Z,2.10
2023-12-30T06:38:16.101Z,2.60
2023-12-30T06:40:43.189Z,3.92
2023-12-30T06:43:10.390Z,3.45
2023-12-30T06:45:37.208Z,3.38
2023-12-30T06:48:04.552Z,2.97
2023-12-30T06:50:31.446Z,2.90
2023-12-30T06:53:00.531Z,3.47
2023-12-30T06:55:32.439Z,3.80
2023-12-30T06:58:05.230Z,3.90
2023-12-30T07:00:32.229Z,3.37
2023-12-30T07:02:59.348Z,4.07
2023-12-30T07:05:26.359Z,3.55
2023-12-30T07:07:53.054Z,3.25
2023-12-30T07:10:19.830Z,3.10
2023-12-30T07:12:46.574Z,4.13
2023-12-30T07:15:13.528Z,4.00
2023-12-30T07:17:40.372Z,3.40
2023-12-30T07:20:08.524Z,3.50
2023-12-30T07:22:35.303Z,3.55
2023-12-30T07:25:02.153Z,3.17
2023-12-30T07:27:29.186Z,3.22
2023-12-30T07:29:56.056Z,3.40
2023-12-30T07:32:22.703Z,3.00
2023-12-30T07:34:49.402Z,3.78
2023-12-30T07:37:16.187Z,4.40
2023-12-30T07:39:42.941Z,3.10
2023-12-30T07:42:09.580Z,3.95
2023-12-30T07:44:39.161Z,2.60
2023-12-30T07:47:08.134Z,2.30
2023-12-30T07:49:35.428Z,2.20
2023-12-30T07:52:02.599Z,2.33
2023-12-30T07:54:29.374Z,2.28
2023-12-30T07:56:56.071Z,2.40
2023-12-30T07:59:22.852Z,2.80
2023-12-30T08:01:49.615Z,2.60
2023-12-30T08:04:16.505Z,2.70
2023-12-30T08:06:43.405Z,2.38
2023-12-30T08:09:12.380Z,2.70
2023-12-30T08:11:50.222Z,2.63
2023-12-30T08:14:25.474Z,2.30
2023-12-30T08:16:52.275Z,1.83
2023-12-30T08:19:19.174Z,2.88
2023-12-30T08:21:46.234Z,2.13
2023-12-30T08:24:15.684Z,2.55
2023-12-30T08:26:42.470Z,7.60
2023-12-30T08:29:10.560Z,3.85
2023-12-30T08:31:37.538Z,3.50
2023-12-30T08:34:04.402Z,1.40
2023-12-30T08:36:31.637Z,2.50
2023-12-30T08:38:58.311Z,3.30
2023-12-30T08:41:28.930Z,1.50
2023-12-30T08:43:57.766Z,2.05
2023-12-30T08:46:24.746Z,1.25
2023-12-30T08:48:51.697Z,1.10
2023-12-30T08:51:18.651Z,1.60
2023-12-30T08:53:45.635Z,2.92
2023-12-30T08:56:13.136Z,1.77
2023-12-30T08:58:39.971Z,1.60
2023-12-30T09:01:07.385Z,1.20
2023-12-30T09:03:34.336Z,1.63
2023-12-30T09:06:01.092Z,1.90
2023-12-30T09:08:28.154Z,1.27
2023-12-30T09:10:55.285Z,1.40
2023-12-30T09:13:22.453Z,1.95
2023-12-30T09:15:49.556Z,1.60
2023-12-30T09:18:16.698Z,2.10
2023-12-30T09:20:44.584Z,2.70
2023-12-30T09:23:11.262Z,2.55
2023-12-30T09:25:38.064Z,2.10
2023-12-30T09:28:05.018Z,2.10
2023-12-30T09:30:31.919Z,2.67
2023-12-30T09:32:58.820Z,2.30
2023-12-30T09:35:25.696Z,1.40
2023-12-30T09:37:52.531Z,1.60
2023-12-30T09:40:19.428Z,1.30
2023-12-30T09:42:48.605Z,1.55
2023-12-30T09:45:16.654Z,1.30
2023-12-30T09:47:47.036Z,2.17
2023-12-30T09:50:14.148Z,1.80
2023-12-30T09:52:40.968Z,1.60
2023-12-30T09:55:08.256Z,1.85
2023-12-30T09:57:35.615Z,1.42
2023-12-30T10:00:06.743Z,2.00
2023-12-30T10:02:34.245Z,1.92
2023-12-30T10:05:01.981Z,2.30
2023-12-30T10:07:32.802Z,1.25
2023-12-30T10:09:59.776Z,2.10
2023-12-30T10:12:26.937Z,1.90
2023-12-30T10:14:53.731Z,1.40
2023-12-30T10:17:21.432Z,1.03
2023-12-30T10:19:48.733Z,2.03
2023-12-30T10:22:16.258Z,3.15
2023-12-30T10:24:43.432Z,2.00
2023-12-30T10:27:11.688Z,3.42
2023-12-30T10:29:46.979Z,3.90
2023-12-30T10:32:22.475Z,4.25
2023-12-30T10:34:49.454Z,2.67
2023-12-30T10:37:17.415Z,1.70
2023-12-30T10:39:47.999Z,2.65
2023-12-30T10:42:15.073Z,1.30
2023-12-30T10:44:41.919Z,1.00
2023-12-30T10:47:12.354Z,1.20
2023-12-30T10:49:41.317Z,1.40
2023-12-30T10:52:12.920Z,1.38
2023-12-30T10:54:48.179Z,2.30
2023-12-30T10:57:19.001Z,1.20
2023-12-30T10:59:50.750Z,0.93
2023-12-30T11:02:18.773Z,1.55
2023-12-30T11:04:46.787Z,1.08
2023-12-30T11:07:16.422Z,1.40
2023-12-30T11:09:44.079Z,1.00
2023-12-30T11:12:10.972Z,1.95
2023-12-30T11:14:38.039Z,2.28
2023-12-30T11:17:05.433Z,0.90
2023-12-30T11:19:33.584Z,0.80
2023-12-30T11:22:02.421Z,1.20
2023-12-30T11:24:29.429Z,0.95
2023-12-30T11:26:56.766Z,1.73
2023-12-30T11:29:29.095Z,11.63
2023-12-30T11:31:57.742Z,3.07
2023-12-30T11:34:28.106Z,1.00
2023-12-30T11:36:58.638Z,0.90
2023-12-30T11:39:29.337Z,0.80
2023-12-30T11:42:00.835Z,0.70
2023-12-30T11:44:31.211Z,0.60
2023-12-30T11:46:59.642Z,0.60
2023-12-30T11:49:27.474Z,1.05
2023-12-30T11:52:03.769Z,2.17
2023-12-30T11:54:33.479Z,0.90
2023-12-30T11:57:00.226Z,1.70
2023-12-30T11:59:27.206Z,0.88
2023-12-30T12:01:54.074Z,0.75
2023-12-30T12:04:20.904Z,1.10
2023-12-30T12:06:48.036Z,1.25
2023-12-30T12:09:14.797Z,1.83
2023-12-30T12:11:41.541Z,1.80
2023-12-30T12:14:08.336Z,1.50
2023-12-30T12:16:35.365Z,1.40
2023-12-30T12:19:05.125Z,1.00
2023-12-30T12:21:32.249Z,1.37
2023-12-30T12:23:58.971Z,1.20
2023-12-30T12:26:26.129Z,0.88
2023-12-30T12:28:56.605Z,0.90
2023-12-30T12:31:29.437Z,1.50
2023-12-30T12:33:56.285Z,1.20
2023-12-30T12:36:23.447Z,1.20
2023-12-30T12:38:51.526Z,0.98
2023-12-30T12:41:18.285Z,1.13
2023-12-30T12:43:45.115Z,1.08
2023-12-30T12:46:12.458Z,0.93
2023-12-30T12:48:39.961Z,1.50
2023-12-30T12:51:07.352Z,1.63
2023-12-30T12:53:34.149Z,1.27
2023-12-30T12:56:00.924Z,1.30
2023-12-30T12:58:27.627Z,1.53
2023-12-30T13:00:54.834Z,1.40
2023-12-30T13:03:21.624Z,1.30
2023-12-30T13:05:48.511Z,1.10
2023-12-30T13:08:15.469Z,2.10
2023-12-30T13:10:49.562Z,1.60
2023-12-30T13:13:16.559Z,1.65
2023-12-30T13:15:43.815Z,2.22
2023-12-30T13:18:14.774Z,1.92
2023-12-30T13:20:43.594Z,1.50
2023-12-30T13:23:12.388Z,1.77
2023-12-30T13:25:39.518Z,1.27
2023-12-30T13:28:07.656Z,1.17
2023-12-30T13:30:35.773Z,1.00
2023-12-30T13:33:06.318Z,0.90
2023-12-30T13:35:38.615Z,1.30
2023-12-30T13:38:15.892Z,4.15
2023-12-30T13:40:44.346Z,2.40
2023-12-30T13:43:11.563Z,1.85
2023-12-30T13:45:44.441Z,2.50
2023-12-30T13:48:40.345Z,1.80
2023-12-30T13:51:07.319Z,2.85
2023-12-30T13:53:34.161Z,2.40
2023-12-30T13:56:03.180Z,1.75
2023-12-30T13:58:30.080Z,1.70
2023-12-30T14:00:57.233Z,1.50
2023-12-30T14:03:25.158Z,1.50
2023-12-30T14:05:52.123Z,1.60
2023-12-30T14:08:23.272Z,2.70
2023-12-30T14:10:51.330Z,1.60
2023-12-30T14:13:24.031Z,1.30
2023-12-30T14:15:52.593Z,1.17
2023-12-30T14:18:20.177Z,1.50
2023-12-30T14:20:48.044Z,1.65
2023-12-30T14:23:14.888Z,3.47
2023-12-30T14:25:42.351Z,1.90
2023-12-30T14:28:09.367Z,1.60
2023-12-30T14:30:36.405Z,2.25
2023-12-30T14:33:05.869Z,2.10
2023-12-30T14:35:32.863Z,2.30
2023-12-30T14:38:02.499Z,2.53
2023-12-30T14:40:29.763Z,3.47
2023-12-30T14:42:56.788Z,4.60
2023-12-30T14:45:24.045Z,5.78
2023-12-30T14:47:51.065Z,4.45
2023-12-30T14:50:18.021Z,3.93
2023-12-30T14:52:45.161Z,3.50
2023-12-30T14:55:12.600Z,4.35
2023-12-30T14:57:41.078Z,3.90
2023-12-30T15:00:14.173Z,3.20
2023-12-30T15:02:42.493Z,4.00
2023-12-30T15:05:13.133Z,4.43
2023-12-30T15:07:42.577Z,5.63
2023-12-30T15:10:12.307Z,4.90
2023-12-30T15:12:40.644Z,3.88
2023-12-30T15:15:09.085Z,2.90
2023-12-30T15:17:35.871Z,3.50
2023-12-30T15:20:03.193Z,3.50
2023-12-30T15:22:31.231Z,3.50
2023-12-30T15:24:59.240Z,3.50
2023-12-30T15:27:26.004Z,3.70
2023-12-30T15:29:52.839Z,4.15
2023-12-30T15:32:19.804Z,4.13
2023-12-30T15:34:46.798Z,4.07
2023-12-30T15:37:13.784Z,4.60
2023-12-30T15:39:40.560Z,7.00
2023-12-30T15:42:08.072Z,4.28
2023-12-30T15:44:38.283Z,4.05
2023-12-30T15:47:10.942Z,3.72
2023-12-30T15:49:39.113Z,3.80
2023-12-30T15:52:07.476Z,3.23
2023-12-30T15:54:34.579Z,4.93
2023-12-30T15:57:01.336Z,6.03
2023-12-30T15:59:28.679Z,6.28
2023-12-30T16:01:55.405Z,5.05
2023-12-30T16:04:22.190Z,4.50
2023-12-30T16:06:49.307Z,4.13
2023-12-30T16:09:16.027Z,3.50
2023-12-30T16:11:42.738Z,3.60
2023-12-30T16:14:11.151Z,3.40
2023-12-30T16:16:45.319Z,3.30
2023-12-30T16:19:13.633Z,4.18
2023-12-30T16:21:40.395Z,6.93
2023-12-30T16:24:07.753Z,8.38
2023-12-30T16:26:35.170Z,5.90
2023-12-30T16:29:03.581Z,5.23
2023-12-30T16:31:30.346Z,4.82
2023-12-30T16:33:57.179Z,4.50
2023-12-30T16:36:25.621Z,40.03
2023-12-30T16:38:55.400Z,6.30
2023-12-30T16:41:23.859Z,4.33
2023-12-30T16:43:51.005Z,3.42
2023-12-30T16:46:19.731Z,3.15
2023-12-30T16:48:46.655Z,3.00
2023-12-30T16:51:14.156Z,3.38
2023-12-30T16:53:42.563Z,3.50
2023-12-30T16:56:10.139Z,3.10
2023-12-30T16:58:37.127Z,2.90
2023-12-30T17:01:05.571Z,3.13
2023-12-30T17:03:32.558Z,3.97
2023-12-30T17:05:59.726Z,3.57
2023-12-30T17:08:26.569Z,4.10
2023-12-30T17:10:53.328Z,4.72
2023-12-30T17:13:23.035Z,5.18
2023-12-30T17:15:54.013Z,4.65
2023-12-30T17:18:20.954Z,5.70
2023-12-30T17:20:47.737Z,8.50
2023-12-30T17:23:14.513Z,8.18
2023-12-30T17:25:41.310Z,7.50
2023-12-30T17:28:09.835Z,9.48
2023-12-30T17:30:36.933Z,17.20
2023-12-30T17:33:04.447Z,16.60
2023-12-30T17:35:31.794Z,10.63
2023-12-30T17:37:58.738Z,9.43
2023-12-30T17:40:25.719Z,9.10
2023-12-30T17:42:52.532Z,7.87
2023-12-30T17:45:19.269Z,8.40
2023-12-30T17:47:46.105Z,7.90
2023-12-30T17:50:12.954Z,7.50
2023-12-30T17:52:39.766Z,7.65
2023-12-30T17:55:07.162Z,35.60
2023-12-30T17:57:33.986Z,15.45
2023-12-30T18:00:00.708Z,10.90
2023-12-30T18:02:27.709Z,8.05
2023-12-30T18:04:54.602Z,7.55
2023-12-30T18:07:21.435Z,6.60
2023-12-30T18:09:48.485Z,6.10
2023-12-30T18:12:15.307Z,5.40
2023-12-30T18:14:42.070Z,5.30
2023-12-30T18:17:09.330Z,7.00
2023-12-30T18:19:36.080Z,5.80
2023-12-30T18:22:03.240Z,6.90
2023-12-30T18:24:30.219Z,6.80
2023-12-30T18:26:57.319Z,7.85
2023-12-30T18:29:24.239Z,8.85
2023-12-30T18:31:52.454Z,13.70
2023-12-30T18:34:19.416Z,12.48
2023-12-30T18:36:47.149Z,12.63
2023-12-30T18:39:14.169Z,11.32
2023-12-30T18:41:41.028Z,9.32
2023-12-30T18:44:07.918Z,9.20
2023-12-30T18:46:35.375Z,8.60
2023-12-30T18:49:02.495Z,9.20
2023-12-30T18:51:29.409Z,10.48
2023-12-30T18:53:56.507Z,10.57
2023-12-30T18:56:23.346Z,14.53
2023-12-30T18:58:50.860Z,15.80
2023-12-30T19:01:18.236Z,15.50
2023-12-30T19:03:45.145Z,17.15
2023-12-30T19:06:12.001Z,18.40
2023-12-30T19:08:39.625Z,16.77
2023-12-30T19:11:07.155Z,12.55
2023-12-30T19:13:35.418Z,10.55
2023-12-30T19:16:02.432Z,12.48
2023-12-30T19:18:29.335Z,12.35
2023-12-30T19:20:58.089Z,12.30
2023-12-30T19:23:25.140Z,15.73
2023-12-30T19:25:51.978Z,16.05
2023-12-30T19:28:18.901Z,18.60
2023-12-30T19:30:45.790Z,15.00
2023-12-30T19:33:13.974Z,14.33
2023-12-30T19:35:42.629Z,11.98
2023-12-30T19:38:09.707Z,11.70
2023-12-30T19:40:36.579Z,12.05
2023-12-30T19:43:04.978Z,12.10
2023-12-30T19:45:32.048Z,12.50
2023-12-30T19:48:00.151Z,12.57
2023-12-30T19:50:29.173Z,12.13
2023-12-30T19:52:56.617Z,11.82
2023-12-30T19:55:23.466Z,14.20
2023-12-30T19:57:50.229Z,15.00
2023-12-30T20:00:17.358Z,14.30
2023-12-30T20:02:44.513Z,13.32
2023-12-30T20:05:14.760Z,20.23
2023-12-30T20:07:41.915Z,16.63
2023-12-30T20:10:15.031Z,15.93
2023-12-30T20:12:41.979Z,14.82
2023-12-30T20:15:08.851Z,18.40
2023-12-30T20:17:36.913Z,16.00
2023-12-30T20:20:07.858Z,16.35
2023-12-30T20:22:34.798Z,17.47
2023-12-30T20:25:01.863Z,15.43
2023-12-30T20:27:29.166Z,16.15
2023-12-30T20:29:56.065Z,15.57
2023-12-30T20:32:23.639Z,14.35
2023-12-30T20:34:51.439Z,14.17
2023-12-30T20:37:18.717Z,14.13
2023-12-30T20:39:45.876Z,14.40
2023-12-30T20:42:12.842Z,15.93
2023-12-30T20:44:40.768Z,17.95
2023-12-30T20:47:08.426Z,19.00
2023-12-30T20:49:37.346Z,23.25
2023-12-30T20:52:05.406Z,23.77
2023-12-30T20:54:33.571Z,19.70
2023-12-30T20:57:00.414Z,19.27
2023-12-30T20:59:27.189Z,18.33
2023-12-30T21:01:53.920Z,20.80
2023-12-30T21:04:20.968Z,20.15
2023-12-30T21:06:47.874Z,19.40
2023-12-30T21:09:15.728Z,19.55
2023-12-30T21:11:43.183Z,17.83
2023-12-30T21:14:10.026Z,16.65
2023-12-30T21:16:37.092Z,15.02
2023-12-30T21:19:04.336Z,16.50
2023-12-30T21:21:31.243Z,15.73
2023-12-30T21:23:57.997Z,14.87
2023-12-30T21:26:25.901Z,15.45
2023-12-30T21:28:52.638Z,13.98
2023-12-30T21:31:19.607Z,13.80
2023-12-30T21:33:46.552Z,14.70
2023-12-30T21:36:15.805Z,14.73
2023-12-30T21:38:44.381Z,14.45
2023-12-30T21:41:12.908Z,14.82
2023-12-30T21:43:42.455Z,14.43
2023-12-30T21:46:09.179Z,15.77
2023-12-30T21:48:36.158Z,15.83
2023-12-30T21:51:07.539Z,14.27
2023-12-30T21:53:34.325Z,17.08
2023-12-30T21:56:01.078Z,14.38
2023-12-30T21:58:28.089Z,14.85
2023-12-30T22:00:54.815Z,15.00
2023-12-30T22:03:21.733Z,14.85
2023-12-30T22:05:48.568Z,14.65
2023-12-30T22:08:15.375Z,14.63
2023-12-30T22:10:42.220Z,15.40
2023-12-30T22:13:11.159Z,14.10
2023-12-30T22:15:38.433Z,14.48
2023-12-30T22:18:05.256Z,15.63
2023-12-30T22:20:32.488Z,13.55
2023-12-30T22:22:59.245Z,18.20
2023-12-30T22:25:26.002Z,16.63
2023-12-30T22:27:52.770Z,16.80
2023-12-30T22:30:19.574Z,15.32
2023-12-30T22:32:46.341Z,14.63
2023-12-30T22:35:14.733Z,15.15
2023-12-30T22:37:42.389Z,16.63
2023-12-30T22:40:13.187Z,15.48
2023-12-30T22:42:40.594Z,17.48
2023-12-30T22:45:09.028Z,15.52
2023-12-30T22:47:39.043Z,15.55
2023-12-30T22:50:07.178Z,15.97
2023-12-30T22:52:34.636Z,15.27
2023-12-30T22:55:02.418Z,14.02
2023-12-30T22:57:29.284Z,24.55
2023-12-30T22:59:56.530Z,39.60
2023-12-30T23:02:23.645Z,22.27
2023-12-30T23:04:51.006Z,15.50
2023-12-30T23:07:17.873Z,13.27
2023-12-30T23:09:46.076Z,13.13
2023-12-30T23:12:15.601Z,13.50
2023-12-30T23:14:42.386Z,12.43
2023-12-30T23:17:15.842Z,12.18
2023-12-30T23:19:44.152Z,13.43
2023-12-30T23:22:10.987Z,13.55
2023-12-30T23:24:39.118Z,13.57
2023-12-30T23:27:06.273Z,12.87
2023-12-30T23:29:34.887Z,12.45
2023-12-30T23:32:01.694Z,16.55
2023-12-30T23:34:38.527Z,14.23
2023-12-30T23:37:10.087Z,11.35
2023-12-30T23:39:36.785Z,9.70
2023-12-30T23:42:03.647Z,12.82
2023-12-30T23:44:30.830Z,14.05
2023-12-30T23:46:57.542Z,13.68
2023-12-30T23:49:24.467Z,11.40
2023-12-30T23:51:51.194Z,11.70
2023-12-30T23:54:17.892Z,13.70
2023-12-30T23:56:44.603Z,14.10
2023-12-30T23:59:11.284Z,11.32
